Flugplatz Trier-Föhren

Für EDRT sind keine METAR/TAF Berichte vorhanden.
Es werden die Flugwettermeldungen vom Flugplatz Spangdahlem Air Base in 14 km Entfernung angezeigt.

Bericht für ETAD

vom 17.09. um 13:56 UTC

Wind 8 kt aus 320° in Böen 16 kt

Sichtweite 10 km oder mehr

keine Wolken

Temperatur 20.7°C

Taupunkt 5.5°C

Luftfeuchtigkeit 37%

Luftdruck 1021 hPa

ETAD 171356Z AUTO 32008G16KT 9999 CLR 21/06 A3015 RMK AO2 SLP193 T02070055

Prognose für ETAD

vom 17.09. um 00:00 UTC

Zwischen 00:00 UTC und 00:00 UTC

Wind 12 kt aus 330° in Böen 18 kt

Sichtweite 10 km oder mehr

aufgelockert bewölkt in 3000 ft

aufgelockert bewölkt in 15000 ft


Zwischen 00:00 und 00:00 UTC übergehend zu

Wind 8 kt aus 20°

Sichtweite 10 km oder mehr

aufgelockert bewölkt in 2500 ft


Am 18.09. zwischen 00:00 und 00:00 UTC übergehend zu

Wind 12 kt aus 20° in Böen 18 kt

Sichtweite 10 km oder mehr

aufgelockert bewölkt in 3000 ft

TAF ETAD 171200Z 1712/1818 33012G18KT 9999 SCT030 SCT150 QNH3015INS BECMG 1718/1719 02008KT 9999 SCT025 QNH3016INS BECMG 1807/1808 02012G18KT 9999 SCT030 QNH3026INS WND 02009KT AFT 17Z TX19/1713Z TN07/1803Z
Impressum